Bay City, Washington
Current Conditions -  °F | °C
As of 3:53 AM on Monday 24 Nov 2014 (Local Time) from KHQM Reporting Station
Haze Haze  
Wind Chill: 36°   Ceiling: Unl
Heat Index: 40°   Visibility: 6mi
Dew Point: 39°   Wind: 6mph
Humidity: 97%   Direction: 60°ENE
Pressure: 30.33"   Gusts: NA
Location:  47.1445°N, 123.771°W
Report Text: KHQM 241153Z AUTO 06005KT 6SM BR CLR 04/04 A3033 RMK AO2 SLP273 70035 T00440039 10067 20044 58007
Loading
Personal Weather Stations






























Interactive Weather Map New forecast layout! Learn more

10-Day Weather Forecast

Advertisements
Track Severe Weather on mobile